sensor_id;sensor_type;location;lat;lon;timestamp;temperature;humidity
23143;DHT22;11740;51.168;4.112;2022-12-18T00:01:12;-4.00;1.00
23143;DHT22;11740;51.168;4.112;2022-12-18T00:03:54;-4.00;1.00
23143;DHT22;11740;51.168;4.112;2022-12-18T00:06:22;-4.00;1.00
23143;DHT22;11740;51.168;4.112;2022-12-18T00:08:50;-4.00;1.00
23143;DHT22;11740;51.168;4.112;2022-12-18T00:11:20;-4.10;1.00
23143;DHT22;11740;51.168;4.112;2022-12-18T00:13:47;-4.10;1.00
23143;DHT22;11740;51.168;4.112;2022-12-18T00:16:16;-4.10;1.00
23143;DHT22;11740;51.168;4.112;2022-12-18T00:18:47;-4.10;1.00
23143;DHT22;11740;51.168;4.112;2022-12-18T00:21:18;-4.10;1.00
23143;DHT22;11740;51.168;4.112;2022-12-18T00:23:46;-4.20;1.00
23143;DHT22;11740;51.168;4.112;2022-12-18T00:26:15;-4.20;1.00
23143;DHT22;11740;51.168;4.112;2022-12-18T00:28:43;-4.20;1.00
23143;DHT22;11740;51.168;4.112;2022-12-18T00:31:12;-4.20;1.00
23143;DHT22;11740;51.168;4.112;2022-12-18T00:33:40;-4.20;1.00
23143;DHT22;11740;51.168;4.112;2022-12-18T00:36:15;-4.20;1.00
23143;DHT22;11740;51.168;4.112;2022-12-18T00:38:44;-4.30;1.00
23143;DHT22;11740;51.168;4.112;2022-12-18T00:41:11;-4.30;1.00
23143;DHT22;11740;51.168;4.112;2022-12-18T00:43:40;-4.30;1.00
23143;DHT22;11740;51.168;4.112;2022-12-18T00:46:07;-4.30;1.00
23143;DHT22;11740;51.168;4.112;2022-12-18T00:48:35;-4.30;1.00
23143;DHT22;11740;51.168;4.112;2022-12-18T00:51:01;-4.30;1.00
23143;DHT22;11740;51.168;4.112;2022-12-18T00:53:28;-4.40;1.00
23143;DHT22;11740;51.168;4.112;2022-12-18T00:55:55;-4.40;6.50
23143;DHT22;11740;51.168;4.112;2022-12-18T00:58:22;-4.40;35.40
23143;DHT22;11740;51.168;4.112;2022-12-18T01:00:49;-4.40;80.40
23143;DHT22;11740;51.168;4.112;2022-12-18T01:03:16;-4.40;59.10
23143;DHT22;11740;51.168;4.112;2022-12-18T01:05:42;-4.50;70.50
23143;DHT22;11740;51.168;4.112;2022-12-18T01:08:09;-4.40;69.10
23143;DHT22;11740;51.168;4.112;2022-12-18T01:10:39;-4.50;1.50
23143;DHT22;11740;51.168;4.112;2022-12-18T01:13:07;-4.50;1.00
23143;DHT22;11740;51.168;4.112;2022-12-18T01:15:34;-4.50;1.00
23143;DHT22;11740;51.168;4.112;2022-12-18T01:18:01;-4.50;1.00
23143;DHT22;11740;51.168;4.112;2022-12-18T01:20:28;-4.50;1.00
23143;DHT22;11740;51.168;4.112;2022-12-18T01:22:55;-4.50;1.00
23143;DHT22;11740;51.168;4.112;2022-12-18T01:25:21;-4.50;1.00
23143;DHT22;11740;51.168;4.112;2022-12-18T01:27:48;-4.60;1.00
23143;DHT22;11740;51.168;4.112;2022-12-18T01:30:15;-4.60;1.00
23143;DHT22;11740;51.168;4.112;2022-12-18T01:32:42;-4.60;1.00
23143;DHT22;11740;51.168;4.112;2022-12-18T01:35:09;-4.70;1.00
23143;DHT22;11740;51.168;4.112;2022-12-18T01:37:36;-4.60;1.00
23143;DHT22;11740;51.168;4.112;2022-12-18T01:40:03;-4.60;1.00
23143;DHT22;11740;51.168;4.112;2022-12-18T01:42:30;-4.60;1.00
23143;DHT22;11740;51.168;4.112;2022-12-18T01:44:58;-4.60;1.00
23143;DHT22;11740;51.168;4.112;2022-12-18T01:47:39;-4.70;1.00
23143;DHT22;11740;51.168;4.112;2022-12-18T01:52:56;-4.70;99.90
23143;DHT22;11740;51.168;4.112;2022-12-18T01:55:30;-4.70;99.90
23143;DHT22;11740;51.168;4.112;2022-12-18T01:57:58;-4.70;99.90
23143;DHT22;11740;51.168;4.112;2022-12-18T02:00:26;-4.70;99.90
23143;DHT22;11740;51.168;4.112;2022-12-18T02:02:53;-4.70;99.90
23143;DHT22;11740;51.168;4.112;2022-12-18T02:05:29;-4.70;99.90
23143;DHT22;11740;51.168;4.112;2022-12-18T02:08:18;-4.80;99.90
23143;DHT22;11740;51.168;4.112;2022-12-18T02:11:00;-4.80;99.90
23143;DHT22;11740;51.168;4.112;2022-12-18T02:18:54;-4.90;99.90
23143;DHT22;11740;51.168;4.112;2022-12-18T02:21:41;-4.90;99.90
23143;DHT22;11740;51.168;4.112;2022-12-18T02:24:29;-4.90;99.90
23143;DHT22;11740;51.168;4.112;2022-12-18T02:27:14;-4.90;99.90
23143;DHT22;11740;51.168;4.112;2022-12-18T02:29:44;-5.00;99.90
23143;DHT22;11740;51.168;4.112;2022-12-18T02:32:25;-5.00;99.90
23143;DHT22;11740;51.168;4.112;2022-12-18T02:34:54;-5.00;99.90
23143;DHT22;11740;51.168;4.112;2022-12-18T02:37:26;-5.10;99.90
23143;DHT22;11740;51.168;4.112;2022-12-18T02:39:54;-5.10;99.90
23143;DHT22;11740;51.168;4.112;2022-12-18T02:42:22;-5.10;99.90
23143;DHT22;11740;51.168;4.112;2022-12-18T02:44:50;-5.10;99.90
23143;DHT22;11740;51.168;4.112;2022-12-18T02:47:19;-5.10;99.90
23143;DHT22;11740;51.168;4.112;2022-12-18T03:01:16;-5.20;99.90
23143;DHT22;11740;51.168;4.112;2022-12-18T03:06:16;-5.30;99.90
23143;DHT22;11740;51.168;4.112;2022-12-18T03:08:48;-5.30;99.90
23143;DHT22;11740;51.168;4.112;2022-12-18T03:11:19;-5.30;99.90
23143;DHT22;11740;51.168;4.112;2022-12-18T03:14:06;-5.30;99.90
23143;DHT22;11740;51.168;4.112;2022-12-18T03:16:34;-5.30;99.90
23143;DHT22;11740;51.168;4.112;2022-12-18T03:19:03;-5.30;99.90
23143;DHT22;11740;51.168;4.112;2022-12-18T03:21:34;-5.30;99.90
23143;DHT22;11740;51.168;4.112;2022-12-18T03:24:07;-5.30;99.90
23143;DHT22;11740;51.168;4.112;2022-12-18T03:26:35;-5.30;99.90
23143;DHT22;11740;51.168;4.112;2022-12-18T03:29:08;-5.30;99.90
23143;DHT22;11740;51.168;4.112;2022-12-18T03:31:37;-5.30;99.90
23143;DHT22;11740;51.168;4.112;2022-12-18T03:34:12;-5.30;99.90
23143;DHT22;11740;51.168;4.112;2022-12-18T03:36:42;-5.30;99.90
23143;DHT22;11740;51.168;4.112;2022-12-18T03:39:09;-5.30;56.40
23143;DHT22;11740;51.168;4.112;2022-12-18T03:47:30;-5.40;1.00
23143;DHT22;11740;51.168;4.112;2022-12-18T03:50:05;-5.40;1.00
23143;DHT22;11740;51.168;4.112;2022-12-18T03:52:40;-5.50;1.00
23143;DHT22;11740;51.168;4.112;2022-12-18T03:55:11;-5.50;1.00
23143;DHT22;11740;51.168;4.112;2022-12-18T03:57:38;-5.60;1.00
23143;DHT22;11740;51.168;4.112;2022-12-18T04:00:07;-5.60;15.70
23143;DHT22;11740;51.168;4.112;2022-12-18T04:02:37;-5.60;3.50
23143;DHT22;11740;51.168;4.112;2022-12-18T04:05:05;-5.60;1.00
23143;DHT22;11740;51.168;4.112;2022-12-18T04:07:33;-5.60;1.00
23143;DHT22;11740;51.168;4.112;2022-12-18T04:10:01;-5.60;3.80
23143;DHT22;11740;51.168;4.112;2022-12-18T04:12:29;-5.60;15.90
23143;DHT22;11740;51.168;4.112;2022-12-18T04:14:56;-5.60;19.20
23143;DHT22;11740;51.168;4.112;2022-12-18T04:17:23;-5.60;14.70
23143;DHT22;11740;51.168;4.112;2022-12-18T04:19:50;-5.60;1.00
23143;DHT22;11740;51.168;4.112;2022-12-18T04:22:17;-5.60;1.00
23143;DHT22;11740;51.168;4.112;2022-12-18T04:24:44;-5.60;1.00
23143;DHT22;11740;51.168;4.112;2022-12-18T04:27:11;-5.60;1.00
23143;DHT22;11740;51.168;4.112;2022-12-18T04:29:37;-5.60;1.00
23143;DHT22;11740;51.168;4.112;2022-12-18T04:32:04;-5.70;1.00
23143;DHT22;11740;51.168;4.112;2022-12-18T04:34:31;-5.70;3.90
23143;DHT22;11740;51.168;4.112;2022-12-18T04:36:58;-5.60;15.60
23143;DHT22;11740;51.168;4.112;2022-12-18T04:39:26;-5.70;1.00
23143;DHT22;11740;51.168;4.112;2022-12-18T04:41:52;-5.70;1.00
23143;DHT22;11740;51.168;4.112;2022-12-18T04:44:19;-5.70;1.00
23143;DHT22;11740;51.168;4.112;2022-12-18T04:46:46;-5.70;1.00
23143;DHT22;11740;51.168;4.112;2022-12-18T04:49:13;-5.70;1.00
23143;DHT22;11740;51.168;4.112;2022-12-18T04:51:40;-5.70;1.00
23143;DHT22;11740;51.168;4.112;2022-12-18T04:54:07;-5.70;1.00
23143;DHT22;11740;51.168;4.112;2022-12-18T04:56:34;-5.80;1.00
23143;DHT22;11740;51.168;4.112;2022-12-18T04:59:01;-5.80;1.00
23143;DHT22;11740;51.168;4.112;2022-12-18T05:01:28;-5.90;1.00
23143;DHT22;11740;51.168;4.112;2022-12-18T05:04:00;-5.90;1.00
23143;DHT22;11740;51.168;4.112;2022-12-18T05:06:28;-5.90;1.00
23143;DHT22;11740;51.168;4.112;2022-12-18T05:08:55;-5.90;1.00
23143;DHT22;11740;51.168;4.112;2022-12-18T05:11:21;-5.90;1.00
23143;DHT22;11740;51.168;4.112;2022-12-18T05:13:48;-5.90;55.30
23143;DHT22;11740;51.168;4.112;2022-12-18T05:16:15;-5.90;90.80
23143;DHT22;11740;51.168;4.112;2022-12-18T05:18:42;-5.90;99.90
23143;DHT22;11740;51.168;4.112;2022-12-18T05:21:09;-5.90;99.90
23143;DHT22;11740;51.168;4.112;2022-12-18T05:23:36;-5.90;99.90
23143;DHT22;11740;51.168;4.112;2022-12-18T05:26:04;-5.90;99.90
23143;DHT22;11740;51.168;4.112;2022-12-18T05:28:32;-5.80;99.90
23143;DHT22;11740;51.168;4.112;2022-12-18T05:31:01;-5.80;99.90
23143;DHT22;11740;51.168;4.112;2022-12-18T05:33:31;-5.80;99.90
23143;DHT22;11740;51.168;4.112;2022-12-18T05:35:59;-5.80;99.90
23143;DHT22;11740;51.168;4.112;2022-12-18T05:38:27;-5.80;99.90
23143;DHT22;11740;51.168;4.112;2022-12-18T05:40:55;-5.80;99.90
23143;DHT22;11740;51.168;4.112;2022-12-18T05:43:23;-5.80;99.90
23143;DHT22;11740;51.168;4.112;2022-12-18T05:45:50;-5.80;99.90
23143;DHT22;11740;51.168;4.112;2022-12-18T05:48:17;-5.70;99.90
23143;DHT22;11740;51.168;4.112;2022-12-18T05:50:45;-5.80;99.90
23143;DHT22;11740;51.168;4.112;2022-12-18T05:53:13;-5.70;99.90
23143;DHT22;11740;51.168;4.112;2022-12-18T05:55:42;-5.80;99.90
23143;DHT22;11740;51.168;4.112;2022-12-18T05:58:10;-5.80;99.90
23143;DHT22;11740;51.168;4.112;2022-12-18T06:00:38;-5.80;99.90
23143;DHT22;11740;51.168;4.112;2022-12-18T06:03:07;-5.90;99.90
23143;DHT22;11740;51.168;4.112;2022-12-18T06:05:35;-5.90;66.90
23143;DHT22;11740;51.168;4.112;2022-12-18T06:08:03;-5.90;93.50
23143;DHT22;11740;51.168;4.112;2022-12-18T06:10:31;-6.00;91.40
23143;DHT22;11740;51.168;4.112;2022-12-18T06:12:59;-6.00;99.90
23143;DHT22;11740;51.168;4.112;2022-12-18T06:15:26;-6.00;99.90
23143;DHT22;11740;51.168;4.112;2022-12-18T06:17:52;-6.00;99.90
23143;DHT22;11740;51.168;4.112;2022-12-18T06:20:19;-6.00;99.90
23143;DHT22;11740;51.168;4.112;2022-12-18T06:22:46;-6.00;99.90
23143;DHT22;11740;51.168;4.112;2022-12-18T06:25:13;-6.00;99.90
23143;DHT22;11740;51.168;4.112;2022-12-18T06:27:40;-6.00;99.90
23143;DHT22;11740;51.168;4.112;2022-12-18T06:30:08;-6.00;99.90
23143;DHT22;11740;51.168;4.112;2022-12-18T06:32:36;-6.00;99.90
23143;DHT22;11740;51.168;4.112;2022-12-18T06:35:03;-6.00;99.90
23143;DHT22;11740;51.168;4.112;2022-12-18T06:37:30;-6.00;99.90
23143;DHT22;11740;51.168;4.112;2022-12-18T06:39:58;-6.00;99.90
23143;DHT22;11740;51.168;4.112;2022-12-18T06:42:24;-6.00;99.90
23143;DHT22;11740;51.168;4.112;2022-12-18T06:44:51;-6.00;99.90
23143;DHT22;11740;51.168;4.112;2022-12-18T06:47:18;-6.00;99.90
23143;DHT22;11740;51.168;4.112;2022-12-18T06:49:45;-6.00;99.90
23143;DHT22;11740;51.168;4.112;2022-12-18T06:52:12;-6.00;99.90
23143;DHT22;11740;51.168;4.112;2022-12-18T06:54:39;-6.00;99.90
23143;DHT22;11740;51.168;4.112;2022-12-18T06:57:05;-6.00;99.90
23143;DHT22;11740;51.168;4.112;2022-12-18T06:59:32;-6.10;99.90
23143;DHT22;11740;51.168;4.112;2022-12-18T07:01:59;-6.00;99.90
23143;DHT22;11740;51.168;4.112;2022-12-18T07:04:30;-6.00;99.90
23143;DHT22;11740;51.168;4.112;2022-12-18T07:06:57;-6.00;99.90
23143;DHT22;11740;51.168;4.112;2022-12-18T07:09:24;-6.00;99.90
23143;DHT22;11740;51.168;4.112;2022-12-18T07:11:57;-6.00;92.60
23143;DHT22;11740;51.168;4.112;2022-12-18T07:14:24;-6.00;96.70
23143;DHT22;11740;51.168;4.112;2022-12-18T07:16:51;-6.00;77.20
23143;DHT22;11740;51.168;4.112;2022-12-18T07:19:18;-6.00;61.40
23143;DHT22;11740;51.168;4.112;2022-12-18T07:21:46;-6.00;29.60
23143;DHT22;11740;51.168;4.112;2022-12-18T07:24:13;-6.00;12.40
23143;DHT22;11740;51.168;4.112;2022-12-18T07:26:40;-6.00;18.00
23143;DHT22;11740;51.168;4.112;2022-12-18T07:29:07;-6.00;1.00
23143;DHT22;11740;51.168;4.112;2022-12-18T07:31:34;-6.00;1.00
23143;DHT22;11740;51.168;4.112;2022-12-18T07:34:01;-6.10;1.00
23143;DHT22;11740;51.168;4.112;2022-12-18T07:36:28;-6.10;1.00
23143;DHT22;11740;51.168;4.112;2022-12-18T07:38:55;-6.10;1.00
23143;DHT22;11740;51.168;4.112;2022-12-18T07:41:22;-6.10;13.10
23143;DHT22;11740;51.168;4.112;2022-12-18T07:43:49;-6.10;37.10
23143;DHT22;11740;51.168;4.112;2022-12-18T07:46:16;-6.10;9.70
23143;DHT22;11740;51.168;4.112;2022-12-18T07:48:43;-6.10;10.50
23143;DHT22;11740;51.168;4.112;2022-12-18T07:51:15;-6.10;1.00
23143;DHT22;11740;51.168;4.112;2022-12-18T07:53:43;-6.10;1.00
23143;DHT22;11740;51.168;4.112;2022-12-18T07:56:11;-6.10;1.00
23143;DHT22;11740;51.168;4.112;2022-12-18T07:58:56;-6.10;1.00
23143;DHT22;11740;51.168;4.112;2022-12-18T08:01:23;-6.00;17.70
23143;DHT22;11740;51.168;4.112;2022-12-18T08:03:50;-6.10;1.00
23143;DHT22;11740;51.168;4.112;2022-12-18T08:06:18;-6.00;21.00
23143;DHT22;11740;51.168;4.112;2022-12-18T08:08:53;-6.00;19.80
23143;DHT22;11740;51.168;4.112;2022-12-18T08:11:21;-6.00;1.00
23143;DHT22;11740;51.168;4.112;2022-12-18T08:13:48;-6.00;2.50
23143;DHT22;11740;51.168;4.112;2022-12-18T08:16:15;-6.00;23.10
23143;DHT22;11740;51.168;4.112;2022-12-18T08:18:42;-6.00;24.90
23143;DHT22;11740;51.168;4.112;2022-12-18T08:21:12;-6.00;20.20
23143;DHT22;11740;51.168;4.112;2022-12-18T08:23:43;-6.00;99.90
23143;DHT22;11740;51.168;4.112;2022-12-18T08:26:11;-5.90;99.90
23143;DHT22;11740;51.168;4.112;2022-12-18T08:28:38;-5.80;53.60
23143;DHT22;11740;51.168;4.112;2022-12-18T08:31:05;-5.80;1.00
23143;DHT22;11740;51.168;4.112;2022-12-18T08:33:33;-5.80;1.00
23143;DHT22;11740;51.168;4.112;2022-12-18T08:36:01;-5.80;1.00
23143;DHT22;11740;51.168;4.112;2022-12-18T08:38:29;-5.80;1.00
23143;DHT22;11740;51.168;4.112;2022-12-18T08:43:31;-5.80;1.00
23143;DHT22;11740;51.168;4.112;2022-12-18T08:46:18;-5.70;1.00
23143;DHT22;11740;51.168;4.112;2022-12-18T08:48:45;-5.70;1.00
23143;DHT22;11740;51.168;4.112;2022-12-18T08:51:13;-5.70;4.90
23143;DHT22;11740;51.168;4.112;2022-12-18T08:53:40;-5.70;35.30
23143;DHT22;11740;51.168;4.112;2022-12-18T08:56:07;-5.60;99.90
23143;DHT22;11740;51.168;4.112;2022-12-18T08:58:34;-5.60;99.90
23143;DHT22;11740;51.168;4.112;2022-12-18T09:01:02;-5.50;99.90
23143;DHT22;11740;51.168;4.112;2022-12-18T09:03:30;-5.50;99.90
23143;DHT22;11740;51.168;4.112;2022-12-18T09:05:58;-5.50;63.60
23143;DHT22;11740;51.168;4.112;2022-12-18T09:08:25;-5.60;95.80
23143;DHT22;11740;51.168;4.112;2022-12-18T09:10:52;-5.50;99.90
23143;DHT22;11740;51.168;4.112;2022-12-18T09:13:19;-5.50;99.90
23143;DHT22;11740;51.168;4.112;2022-12-18T09:15:47;-5.40;99.90
23143;DHT22;11740;51.168;4.112;2022-12-18T09:18:15;-5.30;1.00
23143;DHT22;11740;51.168;4.112;2022-12-18T09:20:43;-5.30;1.00
23143;DHT22;11740;51.168;4.112;2022-12-18T09:23:11;-5.30;1.00
23143;DHT22;11740;51.168;4.112;2022-12-18T09:25:38;-5.20;1.00
23143;DHT22;11740;51.168;4.112;2022-12-18T09:28:09;-5.20;1.00
23143;DHT22;11740;51.168;4.112;2022-12-18T09:30:38;-5.20;1.00
23143;DHT22;11740;51.168;4.112;2022-12-18T09:33:05;-5.10;1.00
23143;DHT22;11740;51.168;4.112;2022-12-18T09:35:35;-5.10;1.00
23143;DHT22;11740;51.168;4.112;2022-12-18T09:38:06;-5.10;99.90
23143;DHT22;11740;51.168;4.112;2022-12-18T09:40:34;-5.10;99.90
23143;DHT22;11740;51.168;4.112;2022-12-18T09:43:05;-5.10;99.90
23143;DHT22;11740;51.168;4.112;2022-12-18T09:45:44;-5.00;99.90
23143;DHT22;11740;51.168;4.112;2022-12-18T09:48:35;-5.00;99.90
23143;DHT22;11740;51.168;4.112;2022-12-18T09:53:58;-4.90;99.90
23143;DHT22;11740;51.168;4.112;2022-12-18T09:56:28;-4.90;99.90
23143;DHT22;11740;51.168;4.112;2022-12-18T09:59:01;-4.80;99.90
23143;DHT22;11740;51.168;4.112;2022-12-18T10:01:29;-4.80;99.90
23143;DHT22;11740;51.168;4.112;2022-12-18T10:04:08;-4.80;99.90
23143;DHT22;11740;51.168;4.112;2022-12-18T10:06:44;-4.80;99.90
23143;DHT22;11740;51.168;4.112;2022-12-18T10:09:49;-4.70;99.90
23143;DHT22;11740;51.168;4.112;2022-12-18T10:12:34;-4.70;99.90
23143;DHT22;11740;51.168;4.112;2022-12-18T10:20:05;-4.60;1.00
23143;DHT22;11740;51.168;4.112;2022-12-18T10:22:44;-4.70;1.00
23143;DHT22;11740;51.168;4.112;2022-12-18T10:25:33;-4.60;99.90
23143;DHT22;11740;51.168;4.112;2022-12-18T10:28:13;-4.60;1.00
23143;DHT22;11740;51.168;4.112;2022-12-18T10:30:41;-4.50;1.00
23143;DHT22;11740;51.168;4.112;2022-12-18T10:33:11;-4.50;1.00
23143;DHT22;11740;51.168;4.112;2022-12-18T10:35:43;-4.50;1.00
23143;DHT22;11740;51.168;4.112;2022-12-18T10:46:00;-4.30;99.90
23143;DHT22;11740;51.168;4.112;2022-12-18T10:48:29;-4.30;1.00
23143;DHT22;11740;51.168;4.112;2022-12-18T10:50:57;-4.30;1.00
23143;DHT22;11740;51.168;4.112;2022-12-18T10:53:38;-4.20;1.00
23143;DHT22;11740;51.168;4.112;2022-12-18T10:56:06;-4.10;99.90
23143;DHT22;11740;51.168;4.112;2022-12-18T10:58:34;-4.10;99.90
23143;DHT22;11740;51.168;4.112;2022-12-18T11:03:30;-4.00;99.90
23143;DHT22;11740;51.168;4.112;2022-12-18T11:06:03;-4.00;99.90
23143;DHT22;11740;51.168;4.112;2022-12-18T11:08:32;-3.90;99.90
23143;DHT22;11740;51.168;4.112;2022-12-18T11:10:59;-3.90;99.90
23143;DHT22;11740;51.168;4.112;2022-12-18T11:13:27;-3.90;99.90
23143;DHT22;11740;51.168;4.112;2022-12-18T11:15:56;-3.80;99.90
23143;DHT22;11740;51.168;4.112;2022-12-18T11:20:54;-3.80;99.90
23143;DHT22;11740;51.168;4.112;2022-12-18T11:23:24;-3.70;99.90
23143;DHT22;11740;51.168;4.112;2022-12-18T11:25:59;-3.80;99.90
23143;DHT22;11740;51.168;4.112;2022-12-18T11:31:11;-3.60;99.90
23143;DHT22;11740;51.168;4.112;2022-12-18T11:33:50;-3.60;99.90
23143;DHT22;11740;51.168;4.112;2022-12-18T11:36:47;-3.60;99.90
23143;DHT22;11740;51.168;4.112;2022-12-18T11:42:03;-3.60;99.90
23143;DHT22;11740;51.168;4.112;2022-12-18T11:44:46;-3.60;99.90
23143;DHT22;11740;51.168;4.112;2022-12-18T11:47:30;-3.50;99.90
23143;DHT22;11740;51.168;4.112;2022-12-18T11:50:01;-3.60;99.90
23143;DHT22;11740;51.168;4.112;2022-12-18T11:52:39;-3.40;99.90
23143;DHT22;11740;51.168;4.112;2022-12-18T11:55:11;-3.40;99.90
23143;DHT22;11740;51.168;4.112;2022-12-18T12:06:52;-3.20;99.90
23143;DHT22;11740;51.168;4.112;2022-12-18T12:09:35;-3.20;99.90
23143;DHT22;11740;51.168;4.112;2022-12-18T12:12:32;-3.20;99.90
23143;DHT22;11740;51.168;4.112;2022-12-18T12:15:31;-3.10;99.90
23143;DHT22;11740;51.168;4.112;2022-12-18T12:21:08;-3.10;99.90
23143;DHT22;11740;51.168;4.112;2022-12-18T12:29:01;-2.90;99.90
23143;DHT22;11740;51.168;4.112;2022-12-18T12:31:49;-2.90;99.90
23143;DHT22;11740;51.168;4.112;2022-12-18T12:37:38;-2.90;99.90
23143;DHT22;11740;51.168;4.112;2022-12-18T12:40:07;-2.80;99.90
23143;DHT22;11740;51.168;4.112;2022-12-18T12:42:56;-2.80;99.90
23143;DHT22;11740;51.168;4.112;2022-12-18T12:51:00;-2.70;99.90
23143;DHT22;11740;51.168;4.112;2022-12-18T12:53:35;-2.60;99.90
23143;DHT22;11740;51.168;4.112;2022-12-18T12:56:03;-2.60;99.90
23143;DHT22;11740;51.168;4.112;2022-12-18T13:03:35;-2.50;99.90
23143;DHT22;11740;51.168;4.112;2022-12-18T13:06:24;-2.50;99.90
23143;DHT22;11740;51.168;4.112;2022-12-18T13:08:59;-2.40;99.90
23143;DHT22;11740;51.168;4.112;2022-12-18T13:11:32;-2.40;99.90
23143;DHT22;11740;51.168;4.112;2022-12-18T13:14:30;-2.40;99.90
23143;DHT22;11740;51.168;4.112;2022-12-18T13:20:10;-2.30;99.90
23143;DHT22;11740;51.168;4.112;2022-12-18T13:22:46;-2.30;99.90
23143;DHT22;11740;51.168;4.112;2022-12-18T13:28:01;-2.30;99.90
23143;DHT22;11740;51.168;4.112;2022-12-18T13:35:42;-2.20;99.90
23143;DHT22;11740;51.168;4.112;2022-12-18T13:38:23;-2.20;1.00
23143;DHT22;11740;51.168;4.112;2022-12-18T13:46:01;-2.10;1.00
23143;DHT22;11740;51.168;4.112;2022-12-18T13:48:29;-2.10;1.00
23143;DHT22;11740;51.168;4.112;2022-12-18T13:51:04;-2.10;1.00
23143;DHT22;11740;51.168;4.112;2022-12-18T13:53:34;-2.00;1.00
23143;DHT22;11740;51.168;4.112;2022-12-18T13:56:05;-2.00;1.00
23143;DHT22;11740;51.168;4.112;2022-12-18T13:58:32;-2.00;1.00
23143;DHT22;11740;51.168;4.112;2022-12-18T14:00:59;-2.00;1.00
23143;DHT22;11740;51.168;4.112;2022-12-18T14:03:28;-1.90;1.00
23143;DHT22;11740;51.168;4.112;2022-12-18T14:06:05;-1.90;1.00
23143;DHT22;11740;51.168;4.112;2022-12-18T14:08:40;-1.90;1.00
23143;DHT22;11740;51.168;4.112;2022-12-18T14:11:22;-1.90;1.00
23143;DHT22;11740;51.168;4.112;2022-12-18T14:13:52;-1.80;1.00
23143;DHT22;11740;51.168;4.112;2022-12-18T14:16:19;-1.80;1.00
23143;DHT22;11740;51.168;4.112;2022-12-18T14:18:48;-1.80;1.00
23143;DHT22;11740;51.168;4.112;2022-12-18T14:21:21;-1.80;1.00
23143;DHT22;11740;51.168;4.112;2022-12-18T14:23:49;-1.80;1.00
23143;DHT22;11740;51.168;4.112;2022-12-18T14:26:33;-1.70;1.00
23143;DHT22;11740;51.168;4.112;2022-12-18T14:29:21;-1.70;1.00
23143;DHT22;11740;51.168;4.112;2022-12-18T14:32:06;-1.70;1.00
23143;DHT22;11740;51.168;4.112;2022-12-18T14:34:44;-1.70;1.00
23143;DHT22;11740;51.168;4.112;2022-12-18T14:37:20;-1.70;1.00
23143;DHT22;11740;51.168;4.112;2022-12-18T14:40:11;-1.70;1.00
23143;DHT22;11740;51.168;4.112;2022-12-18T14:42:39;-1.70;1.00
23143;DHT22;11740;51.168;4.112;2022-12-18T14:50:39;-1.60;1.00
23143;DHT22;11740;51.168;4.112;2022-12-18T14:53:15;-1.60;1.00
23143;DHT22;11740;51.168;4.112;2022-12-18T14:55:46;-1.60;1.00
23143;DHT22;11740;51.168;4.112;2022-12-18T14:58:15;-1.60;1.00
23143;DHT22;11740;51.168;4.112;2022-12-18T15:00:42;-1.60;1.00
23143;DHT22;11740;51.168;4.112;2022-12-18T15:03:10;-1.60;1.00
23143;DHT22;11740;51.168;4.112;2022-12-18T15:05:37;-1.50;1.00
23143;DHT22;11740;51.168;4.112;2022-12-18T15:08:24;-1.60;99.90
23143;DHT22;11740;51.168;4.112;2022-12-18T15:17:20;-1.50;99.90
23143;DHT22;11740;51.168;4.112;2022-12-18T15:19:51;-1.50;99.90
23143;DHT22;11740;51.168;4.112;2022-12-18T15:22:20;-1.50;99.90
23143;DHT22;11740;51.168;4.112;2022-12-18T15:24:55;-1.50;99.90
23143;DHT22;11740;51.168;4.112;2022-12-18T15:27:23;-1.50;99.90
23143;DHT22;11740;51.168;4.112;2022-12-18T15:32:38;-1.40;1.00
23143;DHT22;11740;51.168;4.112;2022-12-18T15:37:40;-1.40;1.00
23143;DHT22;11740;51.168;4.112;2022-12-18T15:40:18;-1.40;1.00
23143;DHT22;11740;51.168;4.112;2022-12-18T15:42:51;-1.40;1.00
23143;DHT22;11740;51.168;4.112;2022-12-18T15:45:38;-1.30;1.00
23143;DHT22;11740;51.168;4.112;2022-12-18T15:48:15;-1.30;1.00
23143;DHT22;11740;51.168;4.112;2022-12-18T15:50:46;-1.30;1.00
23143;DHT22;11740;51.168;4.112;2022-12-18T15:53:13;-1.30;1.00
23143;DHT22;11740;51.168;4.112;2022-12-18T15:55:39;-1.30;1.00
23143;DHT22;11740;51.168;4.112;2022-12-18T15:58:26;-1.30;1.00
23143;DHT22;11740;51.168;4.112;2022-12-18T16:00:53;-1.30;1.00
23143;DHT22;11740;51.168;4.112;2022-12-18T16:03:22;-1.30;1.00
23143;DHT22;11740;51.168;4.112;2022-12-18T16:05:50;-1.20;1.00
23143;DHT22;11740;51.168;4.112;2022-12-18T16:08:16;-1.20;1.00
23143;DHT22;11740;51.168;4.112;2022-12-18T16:10:43;-1.20;1.00
23143;DHT22;11740;51.168;4.112;2022-12-18T16:13:11;-1.20;1.00
23143;DHT22;11740;51.168;4.112;2022-12-18T16:15:39;-1.20;99.90
23143;DHT22;11740;51.168;4.112;2022-12-18T16:18:06;-1.20;1.00
23143;DHT22;11740;51.168;4.112;2022-12-18T16:20:33;-1.20;99.90
23143;DHT22;11740;51.168;4.112;2022-12-18T16:23:00;-1.20;1.00
23143;DHT22;11740;51.168;4.112;2022-12-18T16:25:27;-1.20;99.90
23143;DHT22;11740;51.168;4.112;2022-12-18T16:27:55;-1.10;99.90
23143;DHT22;11740;51.168;4.112;2022-12-18T16:30:26;-1.10;99.90
23143;DHT22;11740;51.168;4.112;2022-12-18T16:33:03;-1.10;99.90
23143;DHT22;11740;51.168;4.112;2022-12-18T16:35:33;-1.10;99.90
23143;DHT22;11740;51.168;4.112;2022-12-18T16:38:00;-1.10;99.90
23143;DHT22;11740;51.168;4.112;2022-12-18T16:40:27;-1.10;99.90
23143;DHT22;11740;51.168;4.112;2022-12-18T16:42:54;-1.10;99.90
23143;DHT22;11740;51.168;4.112;2022-12-18T16:45:20;-1.00;38.10
23143;DHT22;11740;51.168;4.112;2022-12-18T16:47:47;-1.00;56.90
23143;DHT22;11740;51.168;4.112;2022-12-18T16:50:14;-1.00;2.50
23143;DHT22;11740;51.168;4.112;2022-12-18T16:52:41;-1.00;5.20
23143;DHT22;11740;51.168;4.112;2022-12-18T16:55:09;-1.00;99.90
23143;DHT22;11740;51.168;4.112;2022-12-18T16:57:36;-1.00;31.10
23143;DHT22;11740;51.168;4.112;2022-12-18T17:00:03;-1.00;64.60
23143;DHT22;11740;51.168;4.112;2022-12-18T17:02:31;-1.00;36.40
23143;DHT22;11740;51.168;4.112;2022-12-18T17:04:59;-0.90;43.00
23143;DHT22;11740;51.168;4.112;2022-12-18T17:07:27;-0.90;1.00
23143;DHT22;11740;51.168;4.112;2022-12-18T17:09:54;-0.90;24.20
23143;DHT22;11740;51.168;4.112;2022-12-18T17:12:21;-0.90;27.80
23143;DHT22;11740;51.168;4.112;2022-12-18T17:14:48;-0.90;3.60
23143;DHT22;11740;51.168;4.112;2022-12-18T17:17:16;-0.90;99.90
23143;DHT22;11740;51.168;4.112;2022-12-18T17:19:49;-0.80;55.30
23143;DHT22;11740;51.168;4.112;2022-12-18T17:22:16;-0.80;99.90
23143;DHT22;11740;51.168;4.112;2022-12-18T17:24:43;-0.80;1.00
23143;DHT22;11740;51.168;4.112;2022-12-18T17:27:12;-0.80;1.00
23143;DHT22;11740;51.168;4.112;2022-12-18T17:29:38;-0.80;1.00
23143;DHT22;11740;51.168;4.112;2022-12-18T17:32:13;-0.80;1.00
23143;DHT22;11740;51.168;4.112;2022-12-18T17:34:40;-0.80;1.00
23143;DHT22;11740;51.168;4.112;2022-12-18T17:37:07;-0.80;1.00
23143;DHT22;11740;51.168;4.112;2022-12-18T17:39:34;-0.80;17.80
23143;DHT22;11740;51.168;4.112;2022-12-18T17:42:01;-0.80;26.60
23143;DHT22;11740;51.168;4.112;2022-12-18T17:44:28;-0.80;1.00
23143;DHT22;11740;51.168;4.112;2022-12-18T17:46:55;-0.80;99.90
23143;DHT22;11740;51.168;4.112;2022-12-18T17:49:22;-0.80;99.90
23143;DHT22;11740;51.168;4.112;2022-12-18T17:51:49;-0.70;99.90
23143;DHT22;11740;51.168;4.112;2022-12-18T17:54:16;-0.70;1.00
23143;DHT22;11740;51.168;4.112;2022-12-18T17:56:43;-0.70;1.00
23143;DHT22;11740;51.168;4.112;2022-12-18T17:59:11;-0.70;1.00